Time,TemperatureF,DewpointF,PressureIn,WindDirection,WindDirectionDegrees,WindSpeedMPH,WindSpeedGustMPH,Humidity,HourlyPrecipIn,Conditions,Clouds,dailyrainin,SoftwareType,DateUTC
2013-10-09 00:15:00,40.0,35.6,30.12,SW,227,0.0,0.0,84,0.00,,,0.00,Wunderground v.1.12,2013-10-09 04:15:00,
2013-10-09 00:45:00,39.7,35.6,30.12,SW,227,0.0,0.0,85,0.00,,,0.00,Wunderground v.1.12,2013-10-09 04:45:00,
2013-10-09 01:15:00,39.6,35.5,30.13,SW,227,0.0,0.0,85,0.00,,,0.00,Wunderground v.1.12,2013-10-09 05:15:00,
2013-10-09 01:45:00,39.5,35.4,30.14,SW,227,0.0,0.0,85,0.00,,,0.00,Wunderground v.1.12,2013-10-09 05:45:00,
2013-10-09 02:15:00,39.1,35.0,30.14,SW,226,0.0,0.0,85,0.00,,,0.00,Wunderground v.1.12,2013-10-09 06:15:00,
2013-10-09 02:45:00,39.1,34.7,30.14,SW,227,0.0,0.0,84,0.00,,,0.00,Wunderground v.1.12,2013-10-09 06:45:00,
2013-10-09 03:15:00,38.7,34.6,30.14,SW,227,0.0,0.0,85,0.00,,,0.00,Wunderground v.1.12,2013-10-09 07:15:00,
2013-10-09 03:45:00,38.4,34.3,30.15,SW,227,0.0,0.0,85,0.00,,,0.00,Wunderground v.1.12,2013-10-09 07:45:00,
2013-10-09 04:15:00,38.1,34.0,30.15,SW,227,0.0,0.0,85,0.00,,,0.00,Wunderground v.1.12,2013-10-09 08:15:00,
2013-10-09 04:45:00,37.9,34.1,30.16,SW,227,0.0,0.0,86,0.00,,,0.00,Wunderground v.1.12,2013-10-09 08:45:00,
2013-10-09 05:15:00,37.5,33.7,30.16,SW,227,0.0,0.0,86,0.00,,,0.00,Wunderground v.1.12,2013-10-09 09:15:00,
2013-10-09 05:45:00,37.4,33.9,30.17,SW,226,0.0,0.0,87,0.00,,,0.00,Wunderground v.1.12,2013-10-09 09:45:00,
2013-10-09 06:15:00,37.0,33.5,30.17,SW,227,0.0,0.0,87,0.00,,,0.00,Wunderground v.1.12,2013-10-09 10:15:00,
2013-10-09 06:45:00,36.4,32.6,30.18,SW,226,0.0,0.0,86,0.00,,,0.00,Wunderground v.1.12,2013-10-09 10:45:00,
2013-10-09 07:15:00,35.6,28.5,30.18,SW,227,0.0,0.0,75,0.00,,,0.00,Wunderground v.1.12,2013-10-09 11:15:00,
2013-10-09 07:45:00,36.0,28.8,30.18,SW,227,0.0,0.0,75,0.00,,,0.00,Wunderground v.1.12,2013-10-09 11:45:00,
2013-10-09 08:15:00,39.5,32.2,30.19,SW,227,0.0,0.0,75,0.00,,,0.00,Wunderground v.1.12,2013-10-09 12:15:00,
2013-10-09 08:45:00,42.6,33.9,30.18,SW,227,0.0,0.0,71,0.00,,,0.00,Wunderground v.1.12,2013-10-09 12:45:00,
2013-10-09 09:15:00,46.3,36.3,30.19,SW,227,0.0,0.0,68,0.00,,,0.00,Wunderground v.1.12,2013-10-09 13:15:00,
2013-10-09 09:45:00,50.1,38.0,30.19,SW,227,0.0,0.0,63,0.00,,,0.00,Wunderground v.1.12,2013-10-09 13:45:00,
2013-10-09 10:15:00,53.3,40.2,30.19,SW,227,0.0,0.0,61,0.00,,,0.00,Wunderground v.1.12,2013-10-09 14:15:00,
2013-10-09 10:45:00,56.7,40.7,30.19,SW,225,0.0,0.0,55,0.00,,,0.00,Wunderground v.1.12,2013-10-09 14:45:00,
2013-10-09 11:15:00,58.5,41.4,30.18,SW,226,0.0,0.0,53,0.00,,,0.00,Wunderground v.1.12,2013-10-09 15:15:00,
2013-10-09 11:45:00,60.1,41.4,30.17,SSW,194,0.0,0.0,50,0.00,,,0.00,Wunderground v.1.12,2013-10-09 15:45:00,
2013-10-09 12:15:00,61.7,41.3,30.18,West,265,0.0,0.0,47,0.00,,,0.00,Wunderground v.1.12,2013-10-09 16:15:00,
2013-10-09 12:45:00,62.6,41.5,30.17,West,268,0.0,0.0,46,0.00,,,0.00,Wunderground v.1.12,2013-10-09 16:45:00,
2013-10-09 13:15:00,64.3,43.6,30.16,SW,229,0.0,0.0,47,0.00,,,0.00,Wunderground v.1.12,2013-10-09 17:15:00,
2013-10-09 13:45:00,65.1,43.2,30.15,SW,236,3.0,3.0,45,0.00,,,0.00,Wunderground v.1.12,2013-10-09 17:45:00,
2013-10-09 14:15:00,65.9,42.8,30.14,West,269,6.0,6.0,43,0.00,,,0.00,Wunderground v.1.12,2013-10-09 18:15:00,
2013-10-09 14:45:00,66.2,44.8,30.12,West,267,3.0,3.0,46,0.00,,,0.00,Wunderground v.1.12,2013-10-09 18:45:00,
2013-10-09 15:15:00,66.1,42.3,30.11,West,281,1.0,1.0,42,0.00,,,0.00,Wunderground v.1.12,2013-10-09 19:15:00,
2013-10-09 15:45:00,65.8,43.9,30.10,West,271,2.0,2.0,45,0.00,,,0.00,Wunderground v.1.12,2013-10-09 19:45:00,
2013-10-09 16:15:00,65.4,41.1,30.09,West,271,2.0,2.0,41,0.00,,,0.00,Wunderground v.1.12,2013-10-09 20:15:00,
2013-10-09 16:45:00,64.7,42.3,30.09,West,261,0.0,0.0,44,0.00,,,0.00,Wunderground v.1.12,2013-10-09 20:45:00,
2013-10-09 17:15:00,63.0,41.3,30.08,West,271,0.0,0.0,45,0.00,,,0.00,Wunderground v.1.12,2013-10-09 21:15:00,
2013-10-09 17:45:00,61.1,40.7,30.08,West,271,0.0,0.0,47,0.00,,,0.00,Wunderground v.1.12,2013-10-09 21:45:00,
2013-10-09 18:15:00,57.9,39.9,30.08,West,271,0.0,0.0,51,0.00,,,0.00,Wunderground v.1.12,2013-10-09 22:15:00,
2013-10-09 18:45:00,54.7,39.3,30.08,West,271,0.0,0.0,56,0.00,,,0.00,Wunderground v.1.12,2013-10-09 22:45:00,
2013-10-09 19:15:00,51.7,39.1,30.08,West,271,0.0,0.0,62,0.00,,,0.00,Wunderground v.1.12,2013-10-09 23:15:00,
2013-10-09 19:45:00,49.8,38.9,30.08,West,271,0.0,0.0,66,0.00,,,0.00,Wunderground v.1.12,2013-10-09 23:45:00,
2013-10-09 20:15:00,47.9,38.9,30.07,West,272,0.0,0.0,71,0.00,,,0.00,Wunderground v.1.12,2013-10-10 00:15:00,
2013-10-09 20:45:00,46.8,38.2,30.07,West,271,0.0,0.0,72,0.00,,,0.00,Wunderground v.1.12,2013-10-10 00:45:00,
2013-10-09 21:15:00,45.7,37.5,30.07,West,271,0.0,0.0,73,0.00,,,0.00,Wunderground v.1.12,2013-10-10 01:15:00,
2013-10-09 21:45:00,44.7,36.9,30.07,West,270,0.0,0.0,74,0.00,,,0.00,Wunderground v.1.12,2013-10-10 01:45:00,
2013-10-09 22:15:00,43.9,36.1,30.07,West,271,0.0,0.0,74,0.00,,,0.00,Wunderground v.1.12,2013-10-10 02:15:00,
2013-10-09 22:45:00,43.4,36.0,30.07,West,271,0.0,0.0,75,0.00,,,0.00,Wunderground v.1.12,2013-10-10 02:45:00,
2013-10-09 23:15:00,42.7,36.0,30.07,West,271,0.0,0.0,77,0.00,,,0.00,Wunderground v.1.12,2013-10-10 03:15:00,
2013-10-09 23:45:00,42.5,35.8,30.07,West,271,0.0,0.0,77,0.00,,,0.00,Wunderground v.1.12,2013-10-10 03:45:00,